Terminal Aerodrome Forecast
Issued by NWS Twin Cities, MN

Home | Current Version | Previous Version | Graphics & Text | Print | Product List | Glossary On
Versions: 1 2 3 4 5 6 7 8 9 10 11 12 13 14 15 16 17 18 19 20 21 22 23 24 25 26 27 28 29 30 31
000
FTUS43 KMPX 271120
TAFMSP
TAF
KMSP 271120Z 2712/2818 22005KT P6SM SCT080 OVC120
     FM271900 26006KT P6SM VCSH SCT040 OVC100
      TEMPO 2720/2723 3SM -TSRA BKN040CB
     FM280000 01005KT P6SM BKN040
     FM280600 03005KT P6SM OVC012
     FM281600 04006KT P6SM SCT020=

USA.gov is the U.S. government's official web portal to all federal, state and local government web resources and services.